Time;durP1;ratioP1;P1;durP2;ratioP2;P2;SDS_P1;SDS_P2;PMS_P1;PMS_P2;Temp;Humidity;BMP_temperature;BMP_pressure;BME280_temperature;BME280_humidity;BME280_pressure;Samples;Min_cycle;Max_cycle;Signal;HPM_P1;HPM_P2
2021/10/03 00:00:31;;;;;;;19.38;10.57;;;12.70;93.60;;;;;;5008463;28;20041;-50
2021/10/03 00:02:58;;;;;;;13.73;10.07;;;12.80;93.60;;;;;;5007802;28;20355;-50
2021/10/03 00:05:27;;;;;;;12.05;9.25;;;12.80;93.60;;;;;;5008297;28;20121;-50
2021/10/03 00:07:59;;;;;;;17.20;10.50;;;12.80;93.60;;;;;;5008144;28;20042;-49
2021/10/03 00:10:28;;;;;;;14.68;9.82;;;12.90;93.60;;;;;;4988126;28;20625;-49
2021/10/03 00:12:55;;;;;;;16.85;10.77;;;12.80;93.60;;;;;;4988127;28;20057;-49
2021/10/03 00:15:21;;;;;;;19.50;10.73;;;12.70;93.70;;;;;;4987728;28;20064;-48
2021/10/03 00:17:48;;;;;;;14.25;10.52;;;12.70;93.80;;;;;;4984904;28;20125;-49
2021/10/03 00:20:17;;;;;;;16.60;10.00;;;12.90;93.60;;;;;;4989240;28;20566;-49
2021/10/03 00:22:42;;;;;;;19.10;11.25;;;12.90;93.50;;;;;;4974161;28;20038;-49
2021/10/03 00:25:13;;;;;;;16.63;11.68;;;12.90;93.70;;;;;;4987403;28;20060;-49
2021/10/03 00:27:40;;;;;;;16.63;10.57;;;12.70;93.80;;;;;;4989309;28;20042;-49
2021/10/03 00:30:06;;;;;;;16.67;11.45;;;12.80;93.80;;;;;;4971694;28;20077;-49
2021/10/03 00:32:32;;;;;;;16.45;10.93;;;12.90;93.60;;;;;;4987637;28;20042;-49
2021/10/03 00:34:58;;;;;;;16.42;10.45;;;13.00;93.50;;;;;;4982266;28;20049;-49
2021/10/03 00:37:23;;;;;;;16.65;10.55;;;13.00;93.40;;;;;;4940950;28;20064;-49
2021/10/03 00:39:49;;;;;;;14.77;10.75;;;13.00;93.60;;;;;;4956848;28;20057;-49
2021/10/03 00:42:15;;;;;;;20.20;11.10;;;12.90;93.70;;;;;;4947996;28;20501;-49
2021/10/03 00:44:41;;;;;;;17.17;11.82;;;12.70;93.90;;;;;;5013759;28;20040;-49
2021/10/03 00:47:08;;;;;;;19.00;12.23;;;12.80;93.80;;;;;;5010367;28;20118;-49
2021/10/03 00:49:36;;;;;;;18.15;12.32;;;12.80;93.90;;;;;;5014093;28;20045;-49
2021/10/03 00:52:05;;;;;;;22.25;12.38;;;12.90;93.80;;;;;;5013194;28;20548;-49
2021/10/03 00:54:32;;;;;;;17.05;11.60;;;12.70;94.00;;;;;;4976088;28;20056;-50
2021/10/03 00:56:58;;;;;;;17.10;10.98;;;12.50;94.20;;;;;;5012207;28;20395;-49
2021/10/03 00:59:24;;;;;;;18.48;11.70;;;12.40;94.40;;;;;;4974140;28;20161;-50
2021/10/03 01:01:50;;;;;;;13.15;10.48;;;12.20;94.70;;;;;;4974128;28;20066;-49
2021/10/03 01:04:16;;;;;;;14.90;11.27;;;12.20;94.90;;;;;;4973885;28;20499;-49
2021/10/03 01:06:42;;;;;;;15.57;11.55;;;12.00;95.30;;;;;;4974579;28;20027;-49
2021/10/03 01:09:08;;;;;;;17.83;11.77;;;12.00;95.40;;;;;;4973832;28;20069;-49
2021/10/03 01:11:34;;;;;;;15.90;12.60;;;12.00;95.50;;;;;;4973796;28;20043;-49
2021/10/03 01:14:00;;;;;;;15.55;11.48;;;12.10;95.50;;;;;;4974521;28;20674;-50
2021/10/03 01:16:25;;;;;;;14.10;12.25;;;12.10;95.40;;;;;;4973610;28;20054;-49
2021/10/03 01:18:51;;;;;;;20.90;11.55;;;11.80;95.70;;;;;;4973583;28;20550;-50
2021/10/03 01:21:17;;;;;;;16.00;11.68;;;11.50;96.50;;;;;;4925906;28;20039;-49
2021/10/03 01:23:43;;;;;;;16.77;11.75;;;11.40;96.80;;;;;;4974495;28;20030;-49
2021/10/03 01:26:09;;;;;;;13.95;11.23;;;;;;;;;;4940947;28;20049;-49
2021/10/03 01:28:35;;;;;;;14.15;11.27;;;;;;;;;;4973697;28;20404;-49
2021/10/03 01:31:06;;;;;;;17.65;11.52;;;;;;;;;;5001526;28;20049;-49
2021/10/03 01:33:33;;;;;;;24.00;12.93;;;;;;;;;;5013036;28;20494;-49
2021/10/03 01:35:59;;;;;;;18.42;12.43;;;11.70;99.90;;;;;;5013475;28;20056;-49
2021/10/03 01:38:25;;;;;;;17.83;12.95;;;11.20;97.20;;;;;;5014112;28;20427;-48
2021/10/03 01:40:51;;;;;;;18.27;12.02;;;10.80;99.90;;;;;;5011423;28;20052;-49
2021/10/03 01:43:18;;;;;;;15.05;12.02;;;10.70;98.40;;;;;;5012122;28;20104;-48
2021/10/03 01:45:45;;;;;;;18.98;11.32;;;10.60;98.70;;;;;;5011425;28;20084;-49
2021/10/03 01:48:20;;;;;;;16.08;12.88;;;10.40;99.30;;;;;;5011017;28;20030;-49
2021/10/03 01:50:49;;;;;;;16.77;12.52;;;10.30;99.60;;;;;;5011421;28;20026;-49
2021/10/03 01:53:26;;;;;;;21.33;12.88;;;10.30;99.80;;;;;;5010280;28;20029;-49
2021/10/03 01:55:53;;;;;;;17.88;12.23;;;10.30;99.80;;;;;;5011692;28;20145;-49
2021/10/03 01:58:21;;;;;;;17.50;12.43;;;10.40;99.70;;;;;;5013712;28;20030;-49
2021/10/03 02:00:50;;;;;;;20.00;12.48;;;10.20;99.90;;;;;;5012940;28;20506;-49
2021/10/03 02:03:17;;;;;;;18.40;13.18;;;10.20;99.90;;;;;;5012523;28;20029;-49
2021/10/03 02:05:45;;;;;;;15.25;12.20;;;10.30;99.90;;;;;;5014697;28;20037;-49
2021/10/03 02:08:12;;;;;;;17.45;11.90;;;10.40;99.90;;;;;;5009549;28;20050;-49
2021/10/03 02:10:41;;;;;;;15.93;12.40;;;10.60;99.90;;;;;;5012576;28;20036;-49
2021/10/03 02:13:09;;;;;;;14.60;11.63;;;10.70;99.50;;;;;;5014558;28;20030;-49
2021/10/03 02:15:38;;;;;;;16.35;11.98;;;11.10;98.90;;;;;;5011452;28;20036;-50
2021/10/03 02:18:05;;;;;;;17.10;11.95;;;11.20;98.40;;;;;;5012361;28;20049;-49
2021/10/03 02:20:32;;;;;;;19.80;12.85;;;11.20;98.40;;;;;;5012705;28;20032;-49
2021/10/03 02:22:57;;;;;;;17.90;12.48;;;10.90;99.00;;;;;;5011294;28;20034;-49
2021/10/03 02:25:23;;;;;;;18.45;13.07;;;10.50;99.80;;;;;;5012333;28;20091;-49
2021/10/03 02:27:50;;;;;;;18.08;13.68;;;10.20;99.90;;;;;;4993891;28;20050;-49
2021/10/03 02:30:16;;;;;;;18.70;12.93;;;10.10;99.90;;;;;;4995956;28;20084;-49
2021/10/03 02:32:42;;;;;;;14.35;12.27;;;10.10;99.90;;;;;;5013669;28;20037;-49
2021/10/03 02:35:10;;;;;;;19.90;13.10;;;10.30;99.90;;;;;;5011493;28;20036;-49
2021/10/03 02:37:38;;;;;;;14.65;11.95;;;10.40;99.90;;;;;;5009641;28;20037;-49
2021/10/03 02:40:07;;;;;;;23.55;12.80;;;10.50;99.90;;;;;;5013561;28;20046;-49
2021/10/03 02:42:33;;;;;;;17.00;12.55;;;10.60;99.90;;;;;;4970018;28;20442;-49
2021/10/03 02:44:59;;;;;;;20.48;12.15;;;10.80;99.90;;;;;;4979521;28;20039;-50
2021/10/03 02:47:25;;;;;;;17.42;12.48;;;11.00;99.70;;;;;;4983215;28;20042;-50
2021/10/03 02:49:51;;;;;;;18.42;13.90;;;11.20;99.50;;;;;;4958347;28;20050;-49
2021/10/03 02:52:17;;;;;;;22.02;12.75;;;11.20;99.30;;;;;;4965559;28;20069;-49
2021/10/03 02:54:43;;;;;;;19.42;12.35;;;11.40;99.00;;;;;;4990159;28;20038;-48
2021/10/03 02:57:09;;;;;;;18.42;12.68;;;11.40;98.80;;;;;;4987679;28;20070;-49
2021/10/03 02:59:35;;;;;;;16.23;12.35;;;11.40;98.60;;;;;;4985566;28;20034;-49
2021/10/03 03:02:02;;;;;;;20.42;13.38;;;11.30;98.70;;;;;;4988169;28;20065;-49
2021/10/03 03:04:27;;;;;;;15.25;11.02;;;11.10;99.10;;;;;;4955905;28;20090;-49
2021/10/03 03:06:53;;;;;;;16.80;13.20;;;10.90;99.50;;;;;;4987899;28;20050;-49
2021/10/03 03:09:19;;;;;;;18.15;12.50;;;10.80;99.70;;;;;;4983254;28;20037;-50
2021/10/03 03:11:45;;;;;;;15.05;11.82;;;10.90;99.70;;;;;;4984367;28;20065;-49
2021/10/03 03:14:11;;;;;;;19.45;12.98;;;11.10;99.50;;;;;;4987387;28;20100;-49
2021/10/03 03:16:44;;;;;;;17.75;12.10;;;11.00;99.30;;;;;;4943045;28;20042;-49
2021/10/03 03:19:10;;;;;;;16.67;12.13;;;10.70;99.70;;;;;;4989455;28;20486;-50
2021/10/03 03:21:37;;;;;;;17.92;12.13;;;10.50;99.90;;;;;;5011917;28;20036;-49
2021/10/03 03:24:04;;;;;;;19.00;12.85;;;10.30;99.90;;;;;;5009786;28;20042;-49
2021/10/03 03:26:30;;;;;;;21.33;13.20;;;10.30;99.90;;;;;;5004265;28;20366;-49
2021/10/03 03:28:56;;;;;;;17.20;12.77;;;10.30;99.90;;;;;;5013115;28;20026;-49
2021/10/03 03:31:22;;;;;;;20.55;13.10;;;10.30;99.90;;;;;;4993829;28;20038;-49
2021/10/03 03:33:47;;;;;;;20.45;13.05;;;10.10;99.90;;;;;;5007221;28;20033;-49
2021/10/03 03:36:13;;;;;;;19.60;13.43;;;10.20;99.90;;;;;;4988757;28;20038;-48
2021/10/03 03:38:39;;;;;;;18.23;12.80;;;10.10;99.90;;;;;;4989161;28;20386;-50
2021/10/03 03:41:06;;;;;;;16.77;12.65;;;10.10;99.90;;;;;;5010466;28;20056;-50
2021/10/03 03:43:33;;;;;;;17.08;12.82;;;9.90;99.90;;;;;;5008396;28;20651;-50
2021/10/03 03:45:59;;;;;;;19.15;13.18;;;9.90;99.90;;;;;;5004125;28;20052;-51
2021/10/03 03:48:25;;;;;;;16.80;13.02;;;9.90;99.90;;;;;;5010481;28;20034;-50
2021/10/03 03:50:50;;;;;;;20.20;12.90;;;9.90;99.90;;;;;;5007236;28;20033;-49
2021/10/03 03:53:16;;;;;;;17.58;13.13;;;9.90;99.90;;;;;;4992031;28;20042;-50
2021/10/03 03:55:42;;;;;;;19.38;12.88;;;10.10;99.90;;;;;;5010838;28;20029;-50
2021/10/03 03:58:08;;;;;;;26.48;13.38;;;10.30;99.90;;;;;;5012498;28;20030;-50
2021/10/03 04:00:34;;;;;;;17.95;12.82;;;10.50;99.90;;;;;;5011354;28;20100;-50
2021/10/03 04:02:59;;;;;;;19.35;13.50;;;10.70;99.90;;;;;;4960988;28;20045;-50
2021/10/03 04:05:25;;;;;;;18.52;14.02;;;10.70;99.90;;;;;;4990299;28;20048;-50
2021/10/03 04:07:51;;;;;;;18.73;12.50;;;10.80;99.90;;;;;;5009392;28;20466;-50
2021/10/03 04:10:17;;;;;;;16.42;13.30;;;10.90;99.60;;;;;;4988429;28;20077;-50
2021/10/03 04:12:43;;;;;;;18.10;12.70;;;10.90;99.60;;;;;;4990455;28;20050;-51
2021/10/03 04:15:11;;;;;;;16.20;12.20;;;11.00;99.50;;;;;;4983537;28;20051;-50
2021/10/03 04:17:37;;;;;;;18.25;12.70;;;11.10;99.30;;;;;;4960788;28;20052;-50
2021/10/03 04:20:06;;;;;;;14.80;12.07;;;11.20;99.30;;;;;;4983445;28;20601;-50
2021/10/03 04:22:32;;;;;;;19.05;13.10;;;11.20;99.20;;;;;;4994270;28;20053;-50
2021/10/03 04:24:58;;;;;;;19.45;11.98;;;11.00;99.20;;;;;;4987949;28;20037;-50
2021/10/03 04:27:24;;;;;;;21.52;14.07;;;10.70;99.40;;;;;;4992645;28;20434;-50
2021/10/03 04:29:50;;;;;;;17.50;12.65;;;10.30;99.90;;;;;;4994462;28;20038;-50
2021/10/03 04:32:16;;;;;;;19.42;13.25;;;10.10;99.90;;;;;;4982546;28;20569;-49
2021/10/03 04:34:43;;;;;;;18.58;12.88;;;10.30;99.90;;;;;;4989308;28;20037;-50
2021/10/03 04:37:09;;;;;;;17.27;12.23;;;10.50;99.90;;;;;;4987151;28;20027;-50
2021/10/03 04:39:36;;;;;;;16.90;12.88;;;10.80;99.80;;;;;;4982414;28;20085;-51
2021/10/03 04:42:03;;;;;;;18.92;11.75;;;10.90;99.70;;;;;;5009280;28;20073;-50
2021/10/03 04:44:28;;;;;;;20.90;12.90;;;10.90;99.50;;;;;;5007285;28;20604;-51
2021/10/03 04:46:55;;;;;;;14.25;11.65;;;11.10;99.20;;;;;;5012442;28;20116;-50
2021/10/03 04:49:21;;;;;;;18.90;11.93;;;11.20;99.00;;;;;;5014137;28;20065;-50
2021/10/03 04:51:46;;;;;;;17.70;12.48;;;11.20;99.10;;;;;;5014195;28;20455;-49
2021/10/03 04:54:12;;;;;;;17.45;11.25;;;11.10;99.00;;;;;;5014788;28;20041;-50
2021/10/03 04:56:38;;;;;;;18.90;11.52;;;11.10;98.80;;;;;;4980706;28;20037;-50
2021/10/03 04:59:04;;;;;;;14.55;11.55;;;11.20;98.80;;;;;;4987986;28;20505;-50
2021/10/03 05:01:30;;;;;;;18.58;11.18;;;10.80;99.00;;;;;;5012514;28;20378;-50
2021/10/03 05:03:55;;;;;;;14.70;10.82;;;10.70;99.00;;;;;;5013057;28;20034;-50
2021/10/03 05:06:21;;;;;;;18.20;12.68;;;10.50;99.60;;;;;;5015704;28;20045;-50
2021/10/03 05:08:47;;;;;;;17.92;11.93;;;10.30;99.90;;;;;;5011914;28;20417;-50
2021/10/03 05:11:13;;;;;;;16.45;12.68;;;10.40;99.90;;;;;;5014682;28;20109;-50
2021/10/03 05:13:39;;;;;;;18.05;13.05;;;10.10;99.90;;;;;;5013556;28;20042;-50
2021/10/03 05:16:05;;;;;;;16.23;12.25;;;10.10;99.90;;;;;;5011646;28;20113;-50
2021/10/03 05:18:31;;;;;;;16.75;12.00;;;10.30;99.90;;;;;;5015960;28;20030;-50
2021/10/03 05:20:56;;;;;;;17.15;11.85;;;10.40;99.90;;;;;;5012520;28;20528;-50
2021/10/03 05:23:22;;;;;;;17.02;11.45;;;10.20;99.90;;;;;;5013358;28;20029;-49
2021/10/03 05:25:48;;;;;;;16.88;11.02;;;10.40;99.90;;;;;;5013342;28;20053;-50
2021/10/03 05:28:14;;;;;;;17.50;10.88;;;10.30;99.90;;;;;;5009787;28;20038;-49
2021/10/03 05:30:40;;;;;;;14.43;10.63;;;10.50;99.90;;;;;;5013823;28;20072;-49
2021/10/03 05:33:06;;;;;;;18.83;11.30;;;10.60;99.90;;;;;;5015088;28;20430;-54
2021/10/03 05:35:32;;;;;;;16.95;11.60;;;10.30;99.90;;;;;;5013550;28;20102;-50
2021/10/03 05:37:57;;;;;;;17.38;11.18;;;10.40;99.90;;;;;;5013747;28;20068;-49
2021/10/03 05:40:23;;;;;;;14.90;11.07;;;10.80;99.90;;;;;;5011679;28;20041;-49
2021/10/03 05:42:49;;;;;;;15.85;11.40;;;11.00;99.90;;;;;;5012436;28;20065;-49
2021/10/03 05:45:15;;;;;;;14.70;11.55;;;11.30;99.90;;;;;;5013664;28;20030;-49
2021/10/03 05:47:40;;;;;;;17.42;12.98;;;11.50;99.90;;;;;;5010461;28;20033;-49
2021/10/03 05:50:07;;;;;;;18.25;13.57;;;11.60;99.90;;;;;;5011330;28;20560;-50
2021/10/03 05:52:33;;;;;;;16.83;12.45;;;11.80;99.90;;;;;;4964193;28;20053;-49
2021/10/03 05:54:59;;;;;;;19.38;12.77;;;12.00;99.90;;;;;;5008013;28;20455;-49
2021/10/03 05:57:25;;;;;;;22.10;14.20;;;12.20;99.80;;;;;;5013393;28;20034;-49
2021/10/03 05:59:50;;;;;;;20.85;13.02;;;12.50;99.90;;;;;;5011043;28;20018;-50
2021/10/03 06:02:16;;;;;;;17.15;13.23;;;12.50;99.90;;;;;;4994622;28;20030;-49
2021/10/03 06:04:42;;;;;;;13.63;11.18;;;12.80;99.90;;;;;;5012597;28;20021;-50
2021/10/03 06:07:08;;;;;;;17.75;10.63;;;12.90;99.10;;;;;;5007152;28;20034;-50
2021/10/03 06:09:33;;;;;;;15.15;10.20;;;13.20;99.00;;;;;;5011496;28;20021;-49
2021/10/03 06:11:59;;;;;;;14.38;10.65;;;13.00;98.60;;;;;;5006196;28;20494;-49
2021/10/03 06:14:25;;;;;;;15.70;11.30;;;13.30;97.80;;;;;;5010514;28;20057;-50
2021/10/03 06:16:51;;;;;;;14.70;10.63;;;13.50;98.30;;;;;;5013033;28;20018;-50
2021/10/03 06:19:17;;;;;;;12.13;9.98;;;14.10;98.70;;;;;;5011209;28;20049;-50
2021/10/03 06:21:43;;;;;;;17.08;10.02;;;14.30;97.10;;;;;;4990800;28;20475;-49
2021/10/03 06:24:10;;;;;;;12.88;9.23;;;14.20;97.30;;;;;;4995342;28;20077;-50
2021/10/03 06:26:36;;;;;;;16.55;9.52;;;15.00;98.30;;;;;;5010918;28;20026;-50
2021/10/03 06:29:03;;;;;;;11.10;8.63;;;14.70;96.00;;;;;;4995660;28;20325;-49
2021/10/03 06:31:30;;;;;;;14.38;9.20;;;15.10;95.80;;;;;;5003851;28;20104;-50
2021/10/03 06:33:55;;;;;;;13.60;9.23;;;15.00;95.60;;;;;;5010563;28;20034;-50
2021/10/03 06:36:21;;;;;;;14.35;10.02;;;14.60;95.60;;;;;;5010400;28;20053;-50
2021/10/03 06:38:47;;;;;;;14.07;9.57;;;14.80;97.00;;;;;;5010353;28;20125;-49
2021/10/03 06:41:13;;;;;;;12.70;8.73;;;15.80;97.10;;;;;;4984638;28;20115;-50
2021/10/03 06:43:40;;;;;;;15.15;9.50;;;15.70;94.60;;;;;;4993560;28;20045;-49
2021/10/03 06:46:07;;;;;;;12.95;7.88;;;16.20;95.30;;;;;;4993230;28;20044;-49
2021/10/03 06:48:33;;;;;;;10.98;7.50;;;17.10;93.30;;;;;;5012797;28;20030;-50
2021/10/03 06:50:59;;;;;;;12.00;6.68;;;17.00;93.50;;;;;;5013910;28;20426;-48
2021/10/03 06:53:26;;;;;;;14.07;6.78;;;16.70;92.30;;;;;;5011008;28;20040;-48
2021/10/03 06:55:53;;;;;;;9.18;6.03;;;16.80;93.20;;;;;;5009786;28;20038;-48
2021/10/03 06:58:19;;;;;;;10.30;7.13;;;17.50;93.50;;;;;;5010589;28;20022;-48
2021/10/03 07:00:45;;;;;;;7.63;6.18;;;17.70;92.10;;;;;;5011723;28;20045;-49
2021/10/03 07:03:11;;;;;;;14.90;7.15;;;19.60;91.20;;;;;;5010603;28;20025;-48
2021/10/03 07:05:37;;;;;;;9.50;5.88;;;19.40;89.70;;;;;;5007735;28;20153;-48
2021/10/03 07:08:05;;;;;;;11.93;6.05;;;19.20;89.40;;;;;;5009155;28;20029;-49
2021/10/03 07:10:31;;;;;;;15.57;7.30;;;20.80;90.50;;;;;;5005876;28;20034;-48
2021/10/03 07:12:57;;;;;;;9.70;6.47;;;22.10;88.20;;;;;;5008122;28;20124;-47
2021/10/03 07:15:23;;;;;;;12.05;5.90;;;21.90;85.00;;;;;;4983166;28;20493;-48
2021/10/03 07:17:49;;;;;;;8.50;6.18;;;21.30;81.80;;;;;;5004362;28;20041;-48
2021/10/03 07:20:15;;;;;;;8.88;6.15;;;22.30;83.70;;;;;;5010669;28;20080;-49
2021/10/03 07:22:41;;;;;;;14.18;6.72;;;22.50;82.30;;;;;;5009223;28;20477;-48
2021/10/03 07:25:09;;;;;;;11.20;6.38;;;23.00;80.50;;;;;;5012709;28;20030;-48
2021/10/03 07:27:35;;;;;;;13.88;6.22;;;23.90;80.60;;;;;;4976231;28;20479;-48
2021/10/03 07:30:02;;;;;;;10.10;6.15;;;23.90;79.20;;;;;;5011197;28;20025;-49
2021/10/03 07:32:28;;;;;;;9.20;5.95;;;25.00;76.10;;;;;;4986960;28;20505;-48
2021/10/03 07:34:54;;;;;;;10.75;6.10;;;24.90;74.60;;;;;;4983855;28;20053;-48
2021/10/03 07:37:20;;;;;;;9.20;5.97;;;24.60;74.50;;;;;;4981994;28;20422;-48
2021/10/03 07:39:46;;;;;;;11.60;6.40;;;26.10;76.00;;;;;;4989479;28;20057;-49
2021/10/03 07:42:12;;;;;;;16.55;7.60;;;;;;;;;;4985701;28;20030;-48
2021/10/03 07:44:38;;;;;;;8.43;5.68;;;27.70;71.20;;;;;;4980913;28;20034;-48
2021/10/03 07:47:04;;;;;;;12.10;5.80;;;26.40;71.00;;;;;;4985605;28;20045;-48
2021/10/03 07:49:30;;;;;;;8.15;5.40;;;;;;;;;;4974272;28;20043;-48
2021/10/03 07:51:56;;;;;;;10.40;6.25;;;28.10;69.40;;;;;;4991552;28;20041;-48
2021/10/03 07:54:22;;;;;;;13.85;6.47;;;;;;;;;;4989250;28;20044;-49
2021/10/03 07:56:48;;;;;;;10.75;5.57;;;27.80;80.20;;;;;;4976972;28;20583;-50
2021/10/03 07:59:14;;;;;;;6.15;4.90;;;29.10;67.60;;;;;;4993380;28;20065;-49
2021/10/03 08:01:40;;;;;;;14.00;6.40;;;;;;;;;;4994863;28;20069;-48
2021/10/03 08:04:06;;;;;;;7.85;5.93;;;28.50;95.20;;;;;;4949807;29;20131;-49
2021/10/03 08:06:32;;;;;;;8.93;6.10;;;;;;;;;;4955441;29;20114;-49
2021/10/03 08:08:58;;;;;;;8.93;5.22;;;;;;;;;;4950871;28;20106;-48
2021/10/03 08:11:25;;;;;;;12.13;6.22;;;;;;;;;;4969461;28;20030;-49
2021/10/03 08:13:51;;;;;;;8.32;5.82;;;;;;;;;;4972142;28;20034;-48
2021/10/03 08:16:21;;;;;;;10.85;5.68;;;;;;;;;;4957398;28;20581;-49
2021/10/03 08:18:48;;;;;;;7.03;5.45;;;;;;;;;;4973161;28;20039;-49
2021/10/03 08:21:14;;;;;;;8.25;5.00;;;;;;;;;;4969747;28;20043;-49
2021/10/03 08:23:40;;;;;;;9.73;6.13;;;29.50;94.40;;;;;;4969096;28;20134;-49
2021/10/03 08:26:06;;;;;;;8.98;5.70;;;;;;;;;;4971997;28;20487;-49
2021/10/03 08:28:33;;;;;;;8.75;5.75;;;;;;;;;;4972366;28;20129;-49
2021/10/03 08:30:58;;;;;;;9.05;5.95;;;31.60;62.30;;;;;;4971419;28;20134;-48
2021/10/03 08:33:25;;;;;;;6.75;5.45;;;31.80;68.90;;;;;;4971399;28;20130;-48
2021/10/03 08:35:51;;;;;;;10.27;5.82;;;32.00;66.10;;;;;;4964976;28;20039;-48
2021/10/03 08:38:17;;;;;;;7.53;5.63;;;;;;;;;;4971730;28;20519;-50
2021/10/03 08:40:42;;;;;;;8.65;5.90;;;32.30;73.00;;;;;;4972955;28;20062;-48
2021/10/03 08:43:08;;;;;;;13.27;9.63;;;32.50;59.90;;;;;;4959869;28;20069;-49
2021/10/03 08:45:42;;;;;;;19.95;11.05;;;32.70;60.30;;;;;;5012495;28;20481;-48
2021/10/03 08:48:11;;;;;;;9.95;6.55;;;32.20;60.20;;;;;;4978784;28;20040;-48
2021/10/03 08:50:37;;;;;;;10.30;6.55;;;33.20;60.30;;;;;;5008076;28;20022;-49
2021/10/03 08:53:03;;;;;;;13.40;7.63;;;33.10;59.50;;;;;;5012396;28;20045;-48
2021/10/03 08:55:29;;;;;;;11.18;7.40;;;33.70;59.40;;;;;;5012759;28;20022;-48
2021/10/03 08:57:55;;;;;;;11.90;7.25;;;;;;;;;;5009963;28;20030;-48
2021/10/03 09:00:23;;;;;;;9.07;7.05;;;32.70;57.70;;;;;;5011589;28;20045;-48
2021/10/03 09:02:54;;;;;;;15.00;7.82;;;32.70;59.40;;;;;;5010768;28;20071;-48
2021/10/03 09:05:22;;;;;;;11.07;7.13;;;32.90;58.60;;;;;;5011129;28;20029;-48
2021/10/03 09:08:04;;;;;;;13.48;7.70;;;33.10;59.40;;;;;;5013761;28;20032;-49
2021/10/03 09:10:51;;;;;;;10.13;6.47;;;32.70;58.60;;;;;;4976181;28;20525;-49
2021/10/03 09:13:18;;;;;;;10.48;6.88;;;33.90;59.40;;;;;;5005573;28;20514;-49
2021/10/03 09:15:44;;;;;;;12.38;7.65;;;;;;;;;;5011286;28;20033;-50
2021/10/03 09:18:15;;;;;;;9.50;6.88;;;34.00;57.10;;;;;;5010334;28;20470;-49
2021/10/03 09:20:42;;;;;;;9.38;7.13;;;33.60;58.30;;;;;;5012305;28;20030;-50
2021/10/03 09:23:17;;;;;;;11.38;6.63;;;33.60;57.80;;;;;;5012176;28;20116;-49
2021/10/03 09:25:51;;;;;;;15.02;8.23;;;33.80;57.90;;;;;;5011936;28;20030;-49
2021/10/03 09:28:33;;;;;;;12.73;5.88;;;33.70;57.40;;;;;;4991647;28;20054;-49
2021/10/03 09:31:14;;;;;;;8.32;5.55;;;34.30;58.10;;;;;;5007074;28;20042;-51
2021/10/03 09:33:48;;;;;;;8.35;6.43;;;34.60;57.40;;;;;;5012570;28;20045;-50
2021/10/03 09:36:18;;;;;;;8.50;5.80;;;34.50;56.90;;;;;;5010555;28;20125;-49
2021/10/03 09:38:48;;;;;;;8.18;6.03;;;32.40;56.60;;;;;;5011055;28;20071;-49
2021/10/03 09:41:15;;;;;;;7.75;5.32;;;33.40;57.50;;;;;;5010642;28;20434;-49
2021/10/03 09:43:45;;;;;;;10.85;6.93;;;34.10;57.10;;;;;;5010439;28;20109;-49
2021/10/03 09:46:34;;;;;;;14.52;9.98;;;34.70;57.30;;;;;;5009956;28;20040;-49
2021/10/03 09:49:02;;;;;;;31.90;22.35;;;33.70;57.00;;;;;;5010608;28;20038;-49
2021/10/03 09:51:28;;;;;;;11.15;9.40;;;33.50;57.70;;;;;;4970337;28;20030;-49
2021/10/03 09:53:54;;;;;;;9.73;7.15;;;34.00;57.30;;;;;;4985312;28;20738;-49
2021/10/03 09:56:20;;;;;;;13.95;9.70;;;33.80;56.20;;;;;;4989393;28;20607;-48
2021/10/03 09:58:46;;;;;;;12.07;9.15;;;33.00;63.50;;;;;;4965792;28;20062;-49
2021/10/03 10:01:13;;;;;;;13.98;12.23;;;;;;;;;;4987414;28;20045;-48
2021/10/03 10:03:40;;;;;;;14.75;11.07;;;34.10;91.20;;;;;;4988129;28;20081;-48
2021/10/03 10:06:07;;;;;;;8.98;7.30;;;;;;;;;;4983141;28;20509;-48
2021/10/03 10:08:38;;;;;;;13.52;6.95;;;;;;;;;;4984001;28;20035;-48
2021/10/03 10:11:07;;;;;;;13.98;9.30;;;;;;;;;;4989175;28;20498;-48
2021/10/03 10:13:35;;;;;;;27.23;21.77;;;34.00;56.50;;;;;;4990237;28;20108;-48
2021/10/03 10:16:26;;;;;;;12.60;11.20;;;34.20;56.30;;;;;;4955074;28;20043;-48
2021/10/03 10:18:52;;;;;;;8.32;6.47;;;34.50;56.20;;;;;;5004621;28;20049;-48
2021/10/03 10:21:23;;;;;;;13.35;12.15;;;34.30;56.40;;;;;;4984106;28;20018;-48
2021/10/03 10:23:49;;;;;;;22.35;17.42;;;34.30;57.10;;;;;;5010300;28;20034;-48
2021/10/03 10:26:38;;;;;;;14.75;12.23;;;34.80;57.00;;;;;;4992903;28;20030;-49
2021/10/03 10:29:24;;;;;;;9.10;6.65;;;;;;;;;;5010620;28;20405;-48
2021/10/03 10:32:08;;;;;;;8.73;6.80;;;34.10;56.90;;;;;;5007377;28;20471;-48
2021/10/03 10:35:09;;;;;;;14.95;6.47;;;34.50;56.90;;;;;;5009356;28;20080;-48
2021/10/03 10:37:51;;;;;;;9.87;6.13;;;33.70;56.30;;;;;;5008662;28;20084;-49
2021/10/03 10:42:52;;;;;;;10.43;5.60;;;33.90;69.00;;;;;;5009603;28;20593;-48
2021/10/03 10:45:27;;;;;;;9.82;5.82;;;;;;;;;;5010809;28;20026;-48
2021/10/03 10:48:14;;;;;;;10.02;5.70;;;34.20;55.80;;;;;;5008033;28;20040;-48
2021/10/03 10:50:49;;;;;;;9.55;5.70;;;34.20;56.60;;;;;;5011019;28;20038;-48
2021/10/03 10:53:36;;;;;;;10.30;6.25;;;34.70;57.50;;;;;;5007497;28;20084;-49
2021/10/03 10:56:12;;;;;;;7.43;5.85;;;34.60;56.60;;;;;;5005162;28;20544;-49
2021/10/03 10:58:59;;;;;;;8.93;5.60;;;34.50;56.10;;;;;;4970953;28;20033;-49
2021/10/03 11:01:31;;;;;;;10.52;6.30;;;;;;;;;;5009499;28;20034;-49
2021/10/03 11:04:19;;;;;;;9.07;7.43;;;33.20;59.50;;;;;;5012379;28;20054;-48
2021/10/03 11:06:44;;;;;;;9.93;6.43;;;31.70;57.20;;;;;;5005813;28;20022;-49
2021/10/03 11:09:11;;;;;;;10.30;5.85;;;32.10;57.80;;;;;;5011544;28;20036;-49
2021/10/03 11:11:39;;;;;;;8.68;5.55;;;32.70;58.10;;;;;;5010531;28;20101;-48
2021/10/03 11:14:10;;;;;;;10.88;6.35;;;32.60;57.60;;;;;;5009783;28;20025;-48
2021/10/03 11:16:42;;;;;;;;;;;32.50;57.70;;;;;;5006944;28;20041;-49
2021/10/03 11:19:25;;;;;;;9.55;7.90;;;32.00;57.70;;;;;;5009786;28;19931;-48
2021/10/03 11:21:57;;;;;;;8.38;5.28;;;31.90;57.90;;;;;;5008688;28;20100;-49
2021/10/03 11:24:26;;;;;;;21.67;14.15;;;31.90;58.00;;;;;;5009490;28;20124;-48
2021/10/03 11:26:57;;;;;;;36.90;31.17;;;31.90;58.50;;;;;;4999318;28;20053;-50
2021/10/03 11:29:26;;;;;;;25.15;21.58;;;31.60;58.40;;;;;;5010643;28;20061;-49
2021/10/03 11:31:57;;;;;;;13.73;11.23;;;31.30;58.30;;;;;;5006172;28;20056;-49
2021/10/03 11:34:40;;;;;;;10.43;7.18;;;31.30;58.80;;;;;;5008927;28;20055;-50
2021/10/03 11:37:09;;;;;;;18.35;12.85;;;31.40;59.20;;;;;;4991616;28;20037;-49
2021/10/03 11:39:40;;;;;;;18.05;9.23;;;31.20;59.40;;;;;;5008418;28;20133;-50
2021/10/03 11:42:08;;;;;;;10.02;6.47;;;31.30;58.60;;;;;;5006110;28;20026;-48
2021/10/03 11:44:36;;;;;;;13.98;9.15;;;31.20;59.20;;;;;;5009910;28;20030;-49
2021/10/03 11:47:08;;;;;;;8.80;5.97;;;31.10;59.10;;;;;;5009764;28;20026;-49
2021/10/03 11:49:38;;;;;;;8.20;5.75;;;30.90;59.50;;;;;;4991713;28;20044;-49
2021/10/03 11:52:06;;;;;;;9.95;6.20;;;30.80;59.10;;;;;;5010150;28;20056;-48
2021/10/03 11:54:37;;;;;;;9.00;6.15;;;30.70;59.50;;;;;;4959723;28;20042;-49
2021/10/03 11:57:17;;;;;;;9.80;6.37;;;30.50;59.40;;;;;;5009694;28;20036;-49
2021/10/03 11:59:48;;;;;;;9.63;6.30;;;30.80;59.20;;;;;;5005323;28;20088;-51
2021/10/03 12:02:19;;;;;;;9.07;6.32;;;30.30;59.50;;;;;;4989935;28;20041;-49
2021/10/03 12:04:59;;;;;;;9.18;6.03;;;30.30;60.20;;;;;;5006273;28;20367;-49
2021/10/03 12:07:26;;;;;;;9.00;5.70;;;30.50;60.00;;;;;;5007600;28;20612;-49
2021/10/03 12:10:03;;;;;;;9.05;5.47;;;30.30;60.20;;;;;;4977108;28;20489;-49
2021/10/03 12:12:47;;;;;;;7.38;4.88;;;30.50;59.60;;;;;;5008173;28;20029;-49
2021/10/03 12:15:31;;;;;;;7.50;4.90;;;30.30;59.70;;;;;;5009569;28;20123;-50
2021/10/03 12:17:57;;;;;;;13.02;9.70;;;30.80;60.30;;;;;;5008311;28;20041;-49
2021/10/03 12:20:23;;;;;;;9.98;5.85;;;31.00;59.70;;;;;;5008208;28;20030;-49
2021/10/03 12:22:56;;;;;;;9.38;5.28;;;30.50;59.50;;;;;;4989665;28;20056;-49
2021/10/03 12:25:55;;;;;;;8.68;5.50;;;29.90;60.00;;;;;;5007125;28;20446;-50
2021/10/03 12:28:21;;;;;;;6.93;5.05;;;30.00;60.50;;;;;;4977339;28;20042;-50
2021/10/03 12:30:52;;;;;;;9.80;4.93;;;30.10;60.60;;;;;;4987305;28;20475;-50
2021/10/03 12:33:20;;;;;;;7.13;5.05;;;30.10;61.60;;;;;;5009615;28;20519;-49
2021/10/03 12:36:03;;;;;;;8.98;5.25;;;30.00;60.30;;;;;;5010886;28;20116;-49
2021/10/03 12:38:30;;;;;;;8.68;5.30;;;29.80;60.40;;;;;;5012771;28;20120;-50
2021/10/03 12:40:57;;;;;;;5.85;5.10;;;29.50;60.30;;;;;;5014533;28;20026;-49
2021/10/03 12:43:25;;;;;;;12.25;5.18;;;29.80;60.50;;;;;;5014639;28;20775;-49
2021/10/03 12:45:51;;;;;;;7.50;4.68;;;29.90;60.10;;;;;;5015385;28;20052;-49
2021/10/03 12:48:17;;;;;;;7.15;5.53;;;30.10;60.20;;;;;;5013400;28;20121;-50
2021/10/03 12:50:44;;;;;;;13.70;11.05;;;29.90;60.50;;;;;;5013469;28;20491;-50